Race Results for…
5K Jig Jog 2019

March 16, 2019 Results presented by SpectaSport LLC and timed by Specta Sport LLC
Participants:
124
Last Updated:
3/16/2019 11:10:01 AM

NOTE: Age Group awards are based on elapsed chip time (rather than order of finish). Results are preliminary for three days.  Please submit correction requests no later than 10:00 am on March 19, 2019.

Stats

Overall Results

Tip: Swipe the results table to view more.
124 entrants …
5K Results
Race Place Chip Elapsed Bib Name City State Age Age Place Gender Gender Place Pace
1 00:16:49.6 1329 GREG JOHNSON DILLSBURG PA 27 O/A M 1 05:25 min/mile
2 00:18:10.1 1350 ZOE MATHERNE CAMP HILL PA 22 O/A F 1 05:51 min/mile
3 00:20:41.6 1495 GREGORY SCHOLLMEIER 27 O/A M 2 06:40 min/mile
4 00:21:00.2 1281 IVO BILANOVIC CARLISLE PA 30 O/A M 3 06:46 min/mile
5 00:21:07.4 1351 JAMIE METZ ENOLA PA 41 O/A F 2 06:48 min/mile
6 00:21:16.4 1381 ROBERT STANLEY MECHANICSBURG PA 45 1 M 4 06:51 min/mile
7 00:21:17.2 1272 ANTHONY AGBAY ENOLA PA 40 2 M 5 06:51 min/mile
8 00:21:37.3 1275 ANTHONY AGBAY III ENOLA PA 14 1 M 6 06:58 min/mile
9 00:21:38.4 1309 DON FULLER MECHANICSBURG PA 49 3 M 7 06:58 min/mile
10 00:21:45.6 1357 DANNY O'NEAL HARRISBURG PA 39 1 M 8 07:00 min/mile
11 00:21:56.6 1320 OWEN HICKOK YORK SPRINGS PA 12 2 M 9 07:04 min/mile
12 00:21:57.3 1388 CHRIS WASKO CARLISLE PA 52 1 M 10 07:04 min/mile
13 00:22:15.8 1377 COREY SMITH MECHANICSBURG PA 32 2 M 11 07:10 min/mile
14 00:22:19.5 1488 ROBERT COLEMAN 55 2 M 12 07:11 min/mile
15 00:22:53.1 1483 CARLEIGH COURTNEY 13 O/A F 3 07:22 min/mile
16 00:23:03.1 1302 MATTHEW FOSTER MECHANICSBURG PA 36 3 M 13 07:26 min/mile
17 00:23:22.0 1331 LINDSAY KAMARER HARRISBURG PA 29 1 F 4 07:31 min/mile
18 00:23:28.0 1489 JEFFREY SEYFRIED 50 3 M 14 07:33 min/mile
19 00:23:37.1 1337 KATE KORNUCIK CARLISLE PA 37 1 F 5 07:37 min/mile
20 00:24:00.7 1493 EVERETT BYER 11 3 M 15 07:44 min/mile
21 00:24:01.4 1325 RYAN HOOVER DILLSBURG PA 32 4 M 16 07:44 min/mile
22 00:24:20.1 1494 RANDY WHITAKER 58 4 M 17 07:50 min/mile
23 00:24:25.0 1490 KURT JOHNSON 53 5 M 18 07:52 min/mile
24 00:24:53.0 1382 HALEX STARK CARLISLE PA 29 2 F 6 08:01 min/mile
25 00:25:12.1 1367 GEOFFREY SCHREIBEIS ABINGDON MD 42 4 M 19 08:07 min/mile
26 00:25:25.7 1355 DANIELLE MOORE MECHANICSBURG PA 31 2 F 7 08:11 min/mile
27 00:25:37.3 1303 MONICA FOSTER MECHANICSBURG PA 33 3 F 8 08:15 min/mile
28 00:25:47.3 1310 FLYNN FULLER MECHANICSBURG PA 11 4 M 20 08:19 min/mile
29 00:25:55.1 1280 KENDALL BENINI MECHANICSBURG PA 9 1 F 9 08:21 min/mile
30 00:25:59.3 1352 MIKE METZ ENOLA PA 48 5 M 21 08:22 min/mile
31 00:26:12.7 1373 LEANNE SHOEMAKER PALMYRA PA 26 3 F 10 08:27 min/mile
32 00:26:13.2 1333 ROBERT KERN MECHANICSBURG PA 44 6 M 22 08:27 min/mile
33 00:26:15.6 1291 CADENCE CHIZMAR DILLSBURG PA 9 2 F 11 08:28 min/mile
34 00:26:19.4 1301 GINA FEENEY PALMYRA PA 21 4 F 12 08:29 min/mile
35 00:26:23.3 1487 BRIAN HULTBERG 37 5 M 23 08:30 min/mile
36 00:26:52.5 1312 LISA GALIC ENOLA PA 51 1 F 13 08:40 min/mile
37 00:26:59.2 1334 STEPHANIE KERN MECHANICSBURG PA 38 4 F 14 08:42 min/mile
38 00:27:00.0 1295 JEN CONRAD MECHANICSBURG PA 43 1 F 15 08:42 min/mile
39 00:27:15.0 1354 ED METZGER MECHANICSBURG PA 51 6 M 24 08:47 min/mile
40 00:27:21.6 1374 EDWARD SHOENBERGER MOUNT HOLLY SPRINGS PA 43 7 M 25 08:49 min/mile
41 00:27:40.1 1346 MADISON MACHAMER MECHANICSBURG PA 27 5 F 16 08:55 min/mile
42 00:27:57.3 1362 DEREK PORTER CARLISLE PA 33 6 M 26 09:00 min/mile
43 00:28:22.0 1285 NICHOLAS BYBEL LANCASTER PA 60 1 M 27 09:08 min/mile
44 00:28:22.4 1328 RUTH HURSH MOUNT WOLF PA 30 5 F 17 09:09 min/mile
45 00:28:25.5 1360 KATHY PARTHEMORE MECHANICSBURG PA 60 1 F 18 09:10 min/mile
46 00:28:42.4 1324 RONALD HOOVER CARLISLE PA 58 7 M 28 09:15 min/mile
47 00:28:43.9 1481 JOHN MURPHY 59 8 M 29 09:15 min/mile
48 00:28:48.5 1347 AUBREY MACKEY CARLISLE PA 11 3 F 19 09:17 min/mile
49 00:28:53.5 1384 PETER TEMPESTILLI MECHANICSBURG PA 41 8 M 30 09:19 min/mile
50 00:29:03.1 1335 MICHELE KLUK MECHANICSBURG PA 38 6 F 20 09:22 min/mile
124 entrants …

Winners

Tip: Slide the results table left and right to view more.
Overall
Race Place Chip Elapsed Bib Name City State Age Age Place Gender Gender Place Pace
1 00:16:49.6 1329 GREG JOHNSON DILLSBURG PA 27 O/A M 1 05:25 min/mile
3 00:20:41.6 1495 GREGORY SCHOLLMEIER 27 O/A M 2 06:40 min/mile
4 00:21:00.2 1281 IVO BILANOVIC CARLISLE PA 30 O/A M 3 06:46 min/mile
2 00:18:10.1 1350 ZOE MATHERNE CAMP HILL PA 22 O/A F 1 05:51 min/mile
5 00:21:07.4 1351 JAMIE METZ ENOLA PA 41 O/A F 2 06:48 min/mile
15 00:22:53.1 1483 CARLEIGH COURTNEY 13 O/A F 3 07:22 min/mile
1 - 14
Race Place Chip Elapsed Bib Name City State Age Age Place Gender Gender Place Pace
8 00:21:37.3 1275 ANTHONY AGBAY III ENOLA PA 14 1 M 6 06:58 min/mile
11 00:21:56.6 1320 OWEN HICKOK YORK SPRINGS PA 12 2 M 9 07:04 min/mile
20 00:24:00.7 1493 EVERETT BYER 11 3 M 15 07:44 min/mile
28 00:25:47.3 1310 FLYNN FULLER MECHANICSBURG PA 11 4 M 20 08:19 min/mile
56 00:29:54.8 1342 BRENDAN LILL MECHANICSBURG PA 12 5 M 32 09:38 min/mile
29 00:25:55.1 1280 KENDALL BENINI MECHANICSBURG PA 9 1 F 9 08:21 min/mile
33 00:26:15.6 1291 CADENCE CHIZMAR DILLSBURG PA 9 2 F 11 08:28 min/mile
48 00:28:48.5 1347 AUBREY MACKEY CARLISLE PA 11 3 F 19 09:17 min/mile
62 00:31:05.8 1292 CORINNE CHIZMAR DILLSBURG PA 9 4 F 29 10:01 min/mile
82 00:33:43.2 1385 KAYDEN TUM HARRISBURG PA 8 5 F 40 10:52 min/mile
15 - 19
Race Place Chip Elapsed Bib Name City State Age Age Place Gender Gender Place Pace
20 - 29
Race Place Chip Elapsed Bib Name City State Age Age Place Gender Gender Place Pace
60 00:30:35.8 1298 PRAVEEN KUMAR REDDY EDULA HARRISBURG PA 28 1 M 33 09:51 min/mile
17 00:23:22.0 1331 LINDSAY KAMARER HARRISBURG PA 29 1 F 4 07:32 min/mile
24 00:24:53.0 1382 HALEX STARK CARLISLE PA 29 2 F 6 08:01 min/mile
31 00:26:12.7 1373 LEANNE SHOEMAKER PALMYRA PA 26 3 F 10 08:27 min/mile
34 00:26:19.4 1301 GINA FEENEY PALMYRA PA 21 4 F 12 08:29 min/mile
41 00:27:40.1 1346 MADISON MACHAMER MECHANICSBURG PA 27 5 F 16 08:55 min/mile
30 - 39
Race Place Chip Elapsed Bib Name City State Age Age Place Gender Gender Place Pace
10 00:21:45.6 1357 DANNY O'NEAL HARRISBURG PA 39 1 M 8 07:00 min/mile
13 00:22:15.8 1377 COREY SMITH MECHANICSBURG PA 32 2 M 11 07:10 min/mile
16 00:23:03.1 1302 MATTHEW FOSTER MECHANICSBURG PA 36 3 M 13 07:26 min/mile
21 00:24:01.4 1325 RYAN HOOVER DILLSBURG PA 32 4 M 16 07:44 min/mile
35 00:26:23.3 1487 BRIAN HULTBERG 37 5 M 23 08:30 min/mile
19 00:23:37.1 1337 KATE KORNUCIK CARLISLE PA 37 1 F 5 07:37 min/mile
26 00:25:25.7 1355 DANIELLE MOORE MECHANICSBURG PA 31 2 F 7 08:11 min/mile
27 00:25:37.3 1303 MONICA FOSTER MECHANICSBURG PA 33 3 F 8 08:15 min/mile
37 00:26:59.2 1334 STEPHANIE KERN MECHANICSBURG PA 38 4 F 14 08:42 min/mile
44 00:28:22.4 1328 RUTH HURSH MOUNT WOLF PA 30 5 F 17 09:09 min/mile
40 - 49
Race Place Chip Elapsed Bib Name City State Age Age Place Gender Gender Place Pace
6 00:21:16.4 1381 ROBERT STANLEY MECHANICSBURG PA 45 1 M 4 06:51 min/mile
7 00:21:17.2 1272 ANTHONY AGBAY ENOLA PA 40 2 M 5 06:51 min/mile
9 00:21:38.4 1309 DON FULLER MECHANICSBURG PA 49 3 M 7 06:58 min/mile
25 00:25:12.1 1367 GEOFFREY SCHREIBEIS ABINGDON MD 42 4 M 19 08:07 min/mile
30 00:25:59.3 1352 MIKE METZ ENOLA PA 48 5 M 21 08:22 min/mile
38 00:27:00.0 1295 JEN CONRAD MECHANICSBURG PA 43 1 F 15 08:42 min/mile
52 00:29:08.9 1315 APRIL GRAHAM CARLISLE PA 44 2 F 21 09:23 min/mile
57 00:30:04.0 1375 KATHRYN SHOUP CARLISLE PA 46 3 F 25 09:41 min/mile
59 00:30:23.2 1274 NING AGBAY ENOLA PA 42 4 F 27 09:48 min/mile
61 00:30:59.1 1279 SUSAN BARTAK MECHANICSBURG PA 41 5 F 28 09:59 min/mile
50 - 59
Race Place Chip Elapsed Bib Name City State Age Age Place Gender Gender Place Pace
12 00:21:57.3 1388 CHRIS WASKO CARLISLE PA 52 1 M 10 07:04 min/mile
14 00:22:19.5 1488 ROBERT COLEMAN 55 2 M 12 07:11 min/mile
18 00:23:28.0 1489 JEFFREY SEYFRIED 50 3 M 14 07:34 min/mile
22 00:24:20.1 1494 RANDY WHITAKER 58 4 M 17 07:50 min/mile
23 00:24:25.0 1490 KURT JOHNSON 53 5 M 18 07:52 min/mile
36 00:26:52.5 1312 LISA GALIC ENOLA PA 51 1 F 13 08:40 min/mile
69 00:32:02.5 1341 HEATHER LAWLESS MECHANICSBURG PA 58 2 F 33 10:20 min/mile
74 00:32:37.6 1387 SUE WALDNER CAMP HILL PA 53 3 F 35 10:31 min/mile
78 00:32:53.1 1311 TERRY FULLER MECHANICSBURG PA 55 4 F 37 10:36 min/mile
80 00:33:10.9 1290 LISA CHIADO MECHANICSBURG PA 57 5 F 38 10:41 min/mile
60 - 129
Race Place Chip Elapsed Bib Name City State Age Age Place Gender Gender Place Pace
43 00:28:22.0 1285 NICHOLAS BYBEL LANCASTER PA 60 1 M 27 09:09 min/mile
68 00:32:01.5 1376 BJ SMALL MECHANICSBURG PA 63 2 M 36 10:19 min/mile
73 00:32:24.7 1336 JOE KORNUCIK MECHANICSBURG PA 66 3 M 39 10:27 min/mile
97 00:40:10.0 1282 MARK BLASZKA PHILLIPSBURG NJ 60 4 M 48 12:57 min/mile
45 00:28:25.5 1360 KATHY PARTHEMORE MECHANICSBURG PA 60 1 F 18 09:10 min/mile
94 00:39:47.7 1304 BETH FRANZOSA MECHANICSBURG PA 60 2 F 48 12:50 min/mile
99 00:40:11.5 1316 GINGER GREIB MECHANICSBURG PA 67 3 F 51 12:57 min/mile

Race Info

Participants:
124
Last Updated:
3/16/2019 11:10:01 AM

NOTE: Age Group awards are based on elapsed chip time (rather than order of finish). Results are preliminary for three days.  Please submit correction requests no later than 10:00 am on March 19, 2019.

Tip: Swipe the results table to view more.

Search for Name, Bib, City, State or Team
in the field above… by clicking the icon below…

Notes & Race Statistics

5K - 124


Male
Total Finishers Avg Pace
55 09:36

Female
Total Finishers Avg Pace
69 11:11
Timed using RM Timing Systems
Take control of your event
A product of US Sports Timing

Have a question or need to make a correction?

Submit a Result Correction